Time;durP1;ratioP1;P1;durP2;ratioP2;P2;SDS_P1;SDS_P2;PMS_P1;PMS_P2;Temp;Humidity;BMP_temperature;BMP_pressure;BME280_temperature;BME280_humidity;BME280_pressure;Samples;Min_cycle;Max_cycle;Signal;HPM_P1;HPM_P2
2023/08/25 00:02:05;;;;;;;28.25;13.48;;;;;;;28.82;nan;97252.91;5026648;28;20656;-71
2023/08/25 00:04:35;;;;;;;31.35;13.27;;;;;;;28.81;nan;97252.13;5041406;28;20053;-72
2023/08/25 00:07:16;;;;;;;29.00;12.30;;;;;;;28.83;nan;97255.31;5026998;28;20471;-71
2023/08/25 00:09:46;;;;;;;33.50;15.18;;;;;;;28.76;nan;97263.28;5040311;28;20077;-72
2023/08/25 00:12:15;;;;;;;30.80;12.48;;;;;;;28.75;nan;97261.69;5038133;28;20041;-71
2023/08/25 00:14:44;;;;;;;34.95;12.68;;;;;;;28.85;nan;97274.06;5042814;28;20728;-71
2023/08/25 00:17:13;;;;;;;22.48;10.00;;;;;;;28.83;nan;97277.13;5043646;28;20053;-72
2023/08/25 00:19:43;;;;;;;27.27;12.00;;;;;;;28.86;nan;97267.44;5044254;28;20041;-71
2023/08/25 00:22:12;;;;;;;27.05;11.63;;;;;;;28.86;nan;97270.97;5042625;28;20060;-69
2023/08/25 00:24:41;;;;;;;27.23;10.50;;;;;;;28.81;nan;97267.72;5040417;28;20041;-69
2023/08/25 00:27:10;;;;;;;32.22;10.98;;;;;;;28.80;nan;97269.63;5043856;28;20053;-69
2023/08/25 00:29:39;;;;;;;31.08;11.55;;;;;;;28.80;nan;97272.38;5045073;28;20053;-69
2023/08/25 00:32:09;;;;;;;26.92;11.30;;;;;;;28.75;nan;97282.69;5034705;28;20037;-69
2023/08/25 00:34:39;;;;;;;24.75;10.32;;;;;;;28.74;nan;97275.66;5025181;28;20135;-69
2023/08/25 00:37:08;;;;;;;26.45;11.18;;;;;;;28.73;nan;97279.50;5036929;28;20044;-70
2023/08/25 00:39:39;;;;;;;25.83;11.18;;;;;;;28.74;nan;97286.56;5026419;28;20049;-70
2023/08/25 00:42:09;;;;;;;32.13;11.23;;;;;;;28.74;nan;97281.09;5041512;28;20357;-69
2023/08/25 00:44:38;;;;;;;27.60;11.55;;;;;;;28.77;nan;97288.59;5042525;28;20057;-70
2023/08/25 00:47:07;;;;;;;28.27;10.30;;;;;;;28.76;nan;97290.53;5042301;28;20040;-70
2023/08/25 00:49:37;;;;;;;25.60;11.60;;;;;;;28.79;nan;97300.75;5044341;28;20055;-71
2023/08/25 00:52:07;;;;;;;20.25;10.27;;;;;;;28.82;nan;97299.25;5035280;28;20128;-70
2023/08/25 00:54:38;;;;;;;25.50;11.38;;;;;;;28.82;nan;97307.44;5042718;28;20783;-70
2023/08/25 00:57:07;;;;;;;29.75;10.52;;;;;;;28.87;nan;97309.91;5024799;28;20041;-71
2023/08/25 00:59:40;;;;;;;27.33;12.73;;;;;;;28.81;nan;97314.03;5026674;28;20486;-70
2023/08/25 01:02:09;;;;;;;25.38;11.40;;;;;;;28.81;nan;97316.75;5042118;28;20411;-69
2023/08/25 01:04:39;;;;;;;25.15;11.27;;;;;;;28.86;nan;97321.94;5045352;28;20724;-69
2023/08/25 01:07:08;;;;;;;27.20;11.13;;;;;;;28.89;nan;97329.47;5025001;28;20045;-69
2023/08/25 01:09:38;;;;;;;24.20;10.63;;;;;;;28.93;nan;97331.16;5037552;28;20044;-69
2023/08/25 01:12:31;;;;;;;22.15;10.63;;;;;;;28.97;nan;97320.34;5042886;28;20047;-69
2023/08/25 01:15:12;;;;;;;31.67;11.15;;;;;;;29.07;nan;97335.44;5033537;28;20050;-70
2023/08/25 01:17:56;;;;;;;32.15;11.30;;;;;;;29.14;nan;97335.63;5048818;28;20041;-69
2023/08/25 01:20:27;;;;;;;22.13;9.50;;;;;;;29.16;nan;97336.88;5028876;28;20049;-69
2023/08/25 01:23:00;;;;;;;20.83;10.60;;;;;;;29.23;nan;97345.25;5029553;28;20049;-70
2023/08/25 01:25:30;;;;;;;25.70;10.75;;;;;;;29.29;nan;97346.63;5046472;28;20044;-69
2023/08/25 01:28:02;;;;;;;29.98;10.52;;;;;;;29.36;nan;97343.28;5028341;28;20053;-69
2023/08/25 01:30:34;;;;;;;31.53;10.70;;;;;;;29.43;nan;97340.78;5046644;28;20064;-70
2023/08/25 01:33:05;;;;;;;28.00;10.30;;;;;;;29.45;nan;97344.72;5039607;28;20045;-70
2023/08/25 01:36:07;;;;;;;22.98;9.75;;;;;;;29.55;nan;97353.56;5048235;28;20073;-70
2023/08/25 01:39:10;;;;;;;31.25;10.98;;;;;;;29.61;nan;97355.66;5047566;28;20106;-70
2023/08/25 01:41:43;;;;;;;25.40;12.68;;;;;;;29.36;nan;97362.38;5047252;28;20060;-69
2023/08/25 01:44:15;;;;;;;44.38;18.38;;;;;;;29.29;nan;97364.88;5029395;28;20049;-69
2023/08/25 01:46:54;;;;;;;41.60;17.58;;;;;;;29.44;nan;97362.22;5039257;28;20057;-69
2023/08/25 01:49:25;;;;;;;32.20;18.67;;;;;;;29.49;nan;97368.56;5047335;28;20041;-70
2023/08/25 01:51:55;;;;;;;45.72;19.55;;;;;;;29.50;nan;97368.25;5026831;28;20705;-69
2023/08/25 01:54:24;;;;;;;46.65;20.15;;;;;;;29.58;nan;97369.22;5046861;28;20049;-70
2023/08/25 01:56:53;;;;;;;39.97;20.08;;;;;;;29.54;nan;97368.34;5040254;28;20558;-70
2023/08/25 01:59:23;;;;;;;38.17;17.92;;;;;;;29.64;nan;97378.75;5027142;28;20060;-70
2023/08/25 02:01:52;;;;;;;47.38;18.23;;;;;;;29.76;nan;97379.47;5042857;28;20132;-70
2023/08/25 02:04:21;;;;;;;43.55;19.08;;;;;;;29.99;nan;97387.13;5046219;28;20182;-70
2023/08/25 02:06:50;;;;;;;35.97;17.63;;;;;;;30.17;nan;97385.63;5014145;28;20045;-70
2023/08/25 02:09:19;;;;;;;38.42;18.83;;;;;;;29.89;nan;97386.50;5046387;28;20053;-70
2023/08/25 02:11:49;;;;;;;37.97;19.02;;;;;;;30.02;nan;97394.59;5045952;28;20041;-70
2023/08/25 02:14:18;;;;;;;45.35;20.27;;;;;;;30.12;nan;97394.09;5043614;28;20059;-70
2023/08/25 02:16:47;;;;;;;44.97;18.30;;;;;;;30.22;nan;97391.63;5036979;28;20040;-70
2023/08/25 02:19:17;;;;;;;39.70;19.08;;;;;;;30.29;nan;97402.72;5043074;28;20055;-70
2023/08/25 02:21:46;;;;;;;39.92;19.85;;;;;;;30.15;nan;97405.09;5026532;28;20063;-70
2023/08/25 02:24:15;;;;;;;42.40;19.52;;;;;;;30.19;nan;97403.25;5045820;28;20502;-70
2023/08/25 02:26:44;;;;;;;41.22;19.45;;;;;;;30.54;nan;97408.03;5021026;28;20057;-70
2023/08/25 02:29:13;;;;;;;44.83;20.42;;;;;;;30.50;nan;97412.59;5043888;28;20114;-69
2023/08/25 02:31:43;;;;;;;41.10;19.13;;;;;;;30.00;nan;97414.09;5046115;28;20041;-70
2023/08/25 02:34:12;;;;;;;38.60;19.85;;;;;;;30.03;nan;97410.66;5046444;28;20055;-70
2023/08/25 02:36:41;;;;;;;37.10;18.50;;;;;;;30.26;nan;97419.84;5046154;28;20152;-70
2023/08/25 02:39:12;;;;;;;36.00;15.90;;;;;;;30.22;nan;97427.16;5042055;28;20049;-70
2023/08/25 02:41:41;;;;;;;33.78;15.10;;;;;;;30.21;nan;97427.50;5045864;28;20056;-70
2023/08/25 02:44:10;;;;;;;36.58;15.90;;;;;;;30.09;nan;97425.63;5044266;28;20057;-70
2023/08/25 02:46:40;;;;;;;42.13;16.63;;;;;;;30.02;nan;97430.91;5028697;28;20067;-70
2023/08/25 02:49:09;;;;;;;30.63;13.48;;;;;;;29.94;nan;97434.59;5024975;28;20053;-69
2023/08/25 02:51:38;;;;;;;35.05;15.35;;;;;;;29.75;nan;97434.41;5030161;28;20079;-70
2023/08/25 02:54:07;;;;;;;31.02;13.48;;;;;;;29.17;nan;97446.72;5042856;28;20375;-71
2023/08/25 02:56:37;;;;;;;23.00;9.88;;;;;;;29.03;nan;97450.63;5030125;28;20481;-71
2023/08/25 02:59:06;;;;;;;22.88;8.73;;;;;;;28.53;nan;97450.97;5042561;28;20059;-71
2023/08/25 03:01:36;;;;;;;21.48;7.25;;;;;;;28.14;nan;97451.59;5013529;28;20045;-70
2023/08/25 03:04:05;;;;;;;20.83;7.30;;;;;;;28.32;nan;97455.72;5038359;28;20453;-72
2023/08/25 03:06:35;;;;;;;15.07;6.63;;;;;;;28.24;nan;97462.03;5028425;28;20172;-71
2023/08/25 03:09:05;;;;;;;19.33;7.57;;;;;;;28.29;nan;97461.81;5025825;28;20051;-71
2023/08/25 03:11:35;;;;;;;9.90;5.95;;;;;;;28.42;nan;97466.16;5042075;28;20369;-71
2023/08/25 03:14:06;;;;;;;12.82;6.03;;;;;;;28.57;nan;97465.50;5031531;28;20056;-70
2023/08/25 03:16:36;;;;;;;18.75;6.85;;;;;;;28.61;nan;97460.16;5038031;28;20045;-72
2023/08/25 03:19:11;;;;;;;13.65;6.10;;;;;;;28.95;nan;97453.47;5043190;28;20786;-72
2023/08/25 03:21:41;;;;;;;10.88;5.63;;;;;;;29.14;nan;97447.44;5040739;28;20049;-71
2023/08/25 03:24:11;;;;;;;16.95;6.22;;;;;;;29.01;nan;97450.19;5026475;28;20071;-72
2023/08/25 03:26:40;;;;;;;14.45;6.22;;;;;;;29.25;nan;97448.56;5043637;28;20526;-72
2023/08/25 03:29:09;;;;;;;12.07;6.38;;;;;;;29.35;nan;97450.81;5043171;28;20057;-71
2023/08/25 03:31:38;;;;;;;15.98;6.10;;;;;;;29.26;nan;97450.13;5044650;28;20053;-71
2023/08/25 03:34:09;;;;;;;12.23;6.13;;;;;;;29.29;nan;97452.19;5027014;28;20053;-69
2023/08/25 03:36:38;;;;;;;10.18;4.85;;;;;;;29.70;nan;97442.84;5010708;28;20078;-69
2023/08/25 03:39:09;;;;;;;12.00;4.88;;;;;;;29.75;nan;97437.13;5044429;28;20140;-72
2023/08/25 03:41:39;;;;;;;8.05;4.80;;;;;;;29.73;nan;97434.78;5023602;28;20048;-73
2023/08/25 03:44:09;;;;;;;6.75;4.22;;;;;;;29.81;nan;97436.56;5044573;28;20746;-72
2023/08/25 03:46:38;;;;;;;13.25;4.97;;;;;;;30.01;nan;97436.69;5044077;28;20502;-72
2023/08/25 03:49:09;;;;;;;10.20;5.53;;;;;;;30.08;nan;97432.25;5042838;28;20602;-72
2023/08/25 03:51:39;;;;;;;9.68;4.90;;;;;;;30.28;nan;97433.91;5024400;28;20558;-71
2023/08/25 03:54:11;;;;;;;7.43;3.97;;;;;;;30.11;nan;97439.72;5030480;28;20135;-71
2023/08/25 03:56:41;;;;;;;7.50;3.70;;;;;;;30.06;nan;97439.97;5023491;28;20199;-72
2023/08/25 03:59:11;;;;;;;7.40;4.03;;;;;;;29.86;nan;97441.78;5028475;28;20045;-71
2023/08/25 04:01:41;;;;;;;7.75;3.63;;;;;;;30.51;nan;97439.59;5028225;28;20421;-72
2023/08/25 04:04:10;;;;;;;5.55;3.47;;;;;;;30.50;nan;97442.69;5026233;28;20045;-71
2023/08/25 04:06:42;;;;;;;7.60;3.28;;;;;;;30.41;nan;97431.09;5042973;28;20116;-71
2023/08/25 04:09:13;;;;;;;7.18;3.63;;;;;;;30.40;nan;97422.13;5013642;28;20436;-71
2023/08/25 04:11:43;;;;;;;8.75;3.63;;;;;;;30.67;nan;97421.25;5043310;28;20364;-73
2023/08/25 04:14:12;;;;;;;8.57;3.35;;;;;;;30.60;nan;97418.34;5042501;28;20053;-71
2023/08/25 04:16:42;;;;;;;7.20;4.32;;;;;;;30.76;nan;97430.03;5021238;28;20048;-72
2023/08/25 04:19:16;;;;;;;5.45;3.53;;;;;;;30.67;nan;97431.41;5027869;28;20375;-71
2023/08/25 04:21:45;;;;;;;6.03;3.42;;;;;;;30.84;nan;97427.50;5041338;28;20037;-71
2023/08/25 04:24:17;;;;;;;7.43;3.60;;;;;;;30.97;nan;97427.03;5033880;28;20049;-71
2023/08/25 04:26:47;;;;;;;13.70;3.53;;;;;;;31.08;nan;97427.28;5039983;28;20055;-71
2023/08/25 04:29:16;;;;;;;6.80;3.78;;;;;;;31.10;nan;97422.25;5025467;28;20504;-71
2023/08/25 04:31:46;;;;;;;9.50;3.78;;;;;;;31.10;nan;97422.25;5043483;28;20098;-71
2023/08/25 04:34:22;;;;;;;6.53;3.13;;;;;;;31.00;nan;97425.50;5026105;28;20072;-71
2023/08/25 04:36:52;;;;;;;8.23;3.20;;;;;;;31.13;nan;97425.06;5026265;28;20033;-72
2023/08/25 04:39:22;;;;;;;8.23;3.58;;;;;;;31.26;nan;97423.00;5027191;28;20060;-71
2023/08/25 04:41:51;;;;;;;9.02;3.35;;;;;;;31.50;nan;97422.72;5042640;28;20054;-69
2023/08/25 04:44:21;;;;;;;8.55;3.75;;;;;;;31.67;nan;97421.53;5030560;28;20059;-71
2023/08/25 04:46:56;;;;;;;7.53;4.35;;;;;;;32.02;nan;97426.88;5039654;28;20087;-71
2023/08/25 04:49:25;;;;;;;6.88;3.45;;;;;;;32.06;nan;97425.78;5043826;28;20164;-68
2023/08/25 04:51:54;;;;;;;7.95;3.22;;;;;;;31.99;nan;97422.94;5042729;28;20057;-70
2023/08/25 04:54:24;;;;;;;7.30;3.92;;;;;;;31.85;nan;97419.13;5040590;28;20053;-69
2023/08/25 04:56:55;;;;;;;14.15;3.97;;;;;;;32.28;nan;97418.75;5025782;28;20623;-68
2023/08/25 04:59:27;;;;;;;12.02;3.90;;;;;;;32.31;nan;97428.97;5043789;28;20057;-68
2023/08/25 05:02:00;;;;;;;9.50;4.45;;;;;;;32.46;nan;97421.81;5040800;28;20040;-69
2023/08/25 05:04:30;;;;;;;11.55;4.60;;;;;;;32.38;nan;97420.91;5008509;28;20049;-68
2023/08/25 05:07:00;;;;;;;9.48;4.32;;;;;;;32.22;nan;97425.69;5020995;28;20045;-68
2023/08/25 05:09:29;;;;;;;9.07;4.00;;;;;;;32.60;nan;97418.50;5008398;28;20199;-68
2023/08/25 05:11:59;;;;;;;9.68;4.18;;;;;;;32.60;nan;97432.22;5043921;28;20084;-68
2023/08/25 05:14:31;;;;;;;16.77;5.13;;;;;;;32.89;nan;97420.53;5044991;28;20045;-69
2023/08/25 05:17:01;;;;;;;12.48;5.20;;;;;;;32.84;nan;97421.66;5030871;28;20037;-69
2023/08/25 05:19:30;;;;;;;8.75;5.05;;;;;;;33.36;nan;97407.13;5039833;28;20742;-68
2023/08/25 05:22:00;;;;;;;13.25;4.88;;;;;;;33.56;nan;97415.97;5044980;28;20135;-68
2023/08/25 05:24:29;;;;;;;13.38;5.60;;;;;;;33.68;nan;97418.50;5038590;28;20052;-68
2023/08/25 05:26:59;;;;;;;12.35;4.90;;;;;;;34.06;nan;97409.13;5047422;28;20773;-69
2023/08/25 05:29:29;;;;;;;14.68;4.93;;;;;;;34.28;nan;97412.88;5039451;28;20099;-68
2023/08/25 05:32:02;;;;;;;11.30;6.03;;;;;;;34.48;nan;97405.97;5042535;28;20098;-70
2023/08/25 05:35:01;;;;;;;9.07;5.03;;;;;;;34.25;nan;97414.44;5028636;28;20045;-69
2023/08/25 05:37:33;;;;;;;11.93;5.72;;;;;;;34.64;nan;97414.75;5041426;28;20114;-68
2023/08/25 05:40:05;;;;;;;11.30;6.07;;;;;;;34.55;nan;97424.50;5002104;28;20059;-67
2023/08/25 05:42:37;;;;;;;15.02;6.82;;;;;;;34.27;nan;97419.53;5038171;28;20056;-68
2023/08/25 05:45:08;;;;;;;12.55;7.03;;;;;;;34.38;nan;97425.16;5037959;28;20049;-68
2023/08/25 05:47:38;;;;;;;17.75;8.18;;;;;;;34.59;nan;97425.31;5026310;28;20052;-68
2023/08/25 05:50:08;;;;;;;14.88;7.68;;;;;;;34.68;nan;97429.34;5009257;28;20053;-68
2023/08/25 05:52:39;;;;;;;14.43;8.13;;;;;;;34.83;nan;97421.97;5043411;28;20488;-69
2023/08/25 05:55:13;;;;;;;13.10;7.88;;;;;;;34.45;nan;97422.44;5045937;28;20052;-69
2023/08/25 05:57:43;;;;;;;18.95;9.93;;;;;;;34.12;nan;97420.56;5047567;28;20051;-69
2023/08/25 06:00:13;;;;;;;20.92;9.25;;;;;;;33.98;nan;97414.91;5040417;28;20060;-70
2023/08/25 06:02:43;;;;;;;20.55;10.10;;;;;;;34.60;nan;97418.66;5035399;28;20049;-69
2023/08/25 06:05:13;;;;;;;15.15;9.93;;;;;;;35.11;nan;97427.66;5017685;28;20056;-69
2023/08/25 06:07:42;;;;;;;17.98;11.20;;;;;;;34.75;nan;97425.84;5043194;28;20071;-69
2023/08/25 06:10:12;;;;;;;22.08;12.13;;;;;;;34.99;nan;97422.50;5041103;28;20033;-69
2023/08/25 06:12:41;;;;;;;18.35;11.18;;;;;;;34.96;nan;97422.47;5038784;28;20545;-69
2023/08/25 06:15:11;;;;;;;17.60;11.48;;;;;;;34.95;nan;97429.16;5040454;28;20045;-69
2023/08/25 06:17:40;;;;;;;21.85;11.68;;;;;;;34.96;nan;97425.22;5043725;28;20954;-69
2023/08/25 06:20:11;;;;;;;22.25;12.80;;;;;;;34.93;nan;97426.78;5022151;28;20048;-69
2023/08/25 06:22:44;;;;;;;19.15;13.48;;;;;;;34.83;nan;97424.72;5036558;28;20347;-68
2023/08/25 06:25:14;;;;;;;25.05;13.10;;;;;;;34.24;nan;97428.56;5038163;28;20055;-70
2023/08/25 06:27:43;;;;;;;24.83;11.75;;;;;;;34.56;nan;97418.63;5041465;28;20053;-68
2023/08/25 06:30:13;;;;;;;20.13;11.90;;;;;;;34.71;nan;97420.34;5023027;28;20068;-70
2023/08/25 06:32:43;;;;;;;21.00;11.88;;;;;;;34.89;nan;97422.41;5049172;28;20057;-69
2023/08/25 06:35:12;;;;;;;26.25;12.65;;;;;;;34.96;nan;97422.47;5047000;28;20052;-67
2023/08/25 06:37:42;;;;;;;18.88;12.50;;;;;;;34.45;nan;97414.19;5051607;28;20049;-68
2023/08/25 06:40:12;;;;;;;17.25;12.38;;;;;;;34.79;nan;97412.91;5052649;28;20040;-68
2023/08/25 06:42:42;;;;;;;25.60;13.98;;;;;;;34.72;nan;97408.16;5046886;28;20045;-68
2023/08/25 06:45:11;;;;;;;22.40;12.48;;;;;;;34.70;nan;97406.94;5043100;28;20052;-68
2023/08/25 06:47:45;;;;;;;;;;;;;;;34.58;nan;97407.22;5043222;28;20052;-68
2023/08/25 06:50:15;;;;;;;21.05;13.02;;;;;;;34.61;nan;97412.00;5025250;28;20287;-68
2023/08/25 06:52:44;;;;;;;19.40;11.82;;;;;;;34.87;nan;97411.81;5044811;28;20060;-69
2023/08/25 06:55:17;;;;;;;14.82;11.77;;;;;;;34.69;nan;97405.41;5017102;28;20045;-68
2023/08/25 06:57:47;;;;;;;20.38;11.80;;;;;;;34.92;nan;97407.91;5044100;28;20051;-67
2023/08/25 07:00:17;;;;;;;27.40;11.80;;;;;;;34.89;nan;97412.19;5043761;28;20067;-68
2023/08/25 07:02:47;;;;;;;18.08;12.32;;;;;;;34.44;nan;97405.16;5049922;28;20086;-68
2023/08/25 07:05:18;;;;;;;18.52;12.68;;;;;;;34.41;nan;97405.13;5050705;28;20052;-68
2023/08/25 07:07:47;;;;;;;22.83;12.15;;;;;;;34.49;nan;97412.25;5048912;28;20053;-68
2023/08/25 07:10:17;;;;;;;22.05;12.10;;;;;;;34.45;nan;97412.25;5044482;28;20081;-75
2023/08/25 07:12:46;;;;;;;17.25;11.85;;;;;;;34.76;nan;97410.13;5026679;28;20168;-71
2023/08/25 07:15:16;;;;;;;19.52;12.10;;;;;;;34.94;nan;97402.78;5037999;28;20060;-70
2023/08/25 07:17:45;;;;;;;25.55;11.90;;;;;;;34.68;nan;97399.09;5022859;28;20056;-68
2023/08/25 07:20:15;;;;;;;15.90;11.43;;;;;;;34.35;nan;97399.19;5042136;28;20041;-69
2023/08/25 07:22:44;;;;;;;17.70;11.93;;;;;;;34.50;nan;97406.38;5048267;28;20759;-69
2023/08/25 07:25:13;;;;;;;19.20;11.15;;;;;;;34.31;nan;97403.88;5042124;28;20089;-68
2023/08/25 07:27:43;;;;;;;17.75;11.90;;;;;;;33.92;nan;97408.16;5044204;28;20045;-68
2023/08/25 07:30:13;;;;;;;17.15;11.63;;;;;;;34.12;nan;97393.84;5032213;28;20112;-68
2023/08/25 07:32:42;;;;;;;19.70;12.60;;;;;;;34.24;nan;97399.09;4677996;28;10000560;-69
2023/08/25 07:35:13;;;;;;;23.50;12.32;;;;;;;34.30;nan;97399.53;5047358;28;20814;-68
2023/08/25 07:37:43;;;;;;;18.42;11.80;;;;;;;34.03;nan;97403.59;5050565;28;20338;-68
2023/08/25 07:40:13;;;;;;;27.60;13.02;;;;;;;34.02;nan;97402.00;5050150;28;20059;-68
2023/08/25 07:42:43;;;;;;;22.80;13.05;;;;;;;34.08;nan;97392.25;5049927;28;20045;-68
2023/08/25 07:45:12;;;;;;;18.88;11.95;;;;;;;34.02;nan;97391.00;5047754;28;20700;-69
2023/08/25 07:47:41;;;;;;;21.33;12.70;;;;;;;33.81;nan;97397.84;5044318;28;20078;-67
2023/08/25 07:50:11;;;;;;;19.23;11.35;;;;;;;33.84;nan;97399.06;5039340;28;20934;-68
2023/08/25 07:52:41;;;;;;;19.17;11.65;;;;;;;33.84;nan;97388.09;5048985;28;21000;-67
2023/08/25 07:55:12;;;;;;;19.98;12.45;;;;;;;33.90;nan;97391.28;5043554;28;20156;-68
2023/08/25 07:57:41;;;;;;;23.63;12.70;;;;;;;33.88;nan;97393.59;5043085;28;20770;-68
2023/08/25 08:00:15;;;;;;;17.00;11.77;;;;;;;33.94;nan;97387.41;5041361;28;20463;-67
2023/08/25 08:02:47;;;;;;;15.00;8.63;;;;;;;33.52;nan;97389.66;5044781;28;20099;-67
2023/08/25 08:05:18;;;;;;;19.83;9.10;;;;;;;33.58;nan;97386.22;5040110;28;20049;-68
2023/08/25 08:07:48;;;;;;;23.42;9.57;;;;;;;33.49;nan;97382.16;5042625;28;20049;-68
2023/08/25 08:10:17;;;;;;;17.40;9.65;;;;;;;33.56;nan;97384.97;5039458;28;20415;-68
2023/08/25 08:12:47;;;;;;;18.45;9.27;;;;;;;33.76;nan;97384.47;5041043;28;20049;-69
2023/08/25 08:15:16;;;;;;;13.98;10.15;;;;;;;33.68;nan;97382.03;5042852;28;20052;-69
2023/08/25 08:17:45;;;;;;;18.48;10.27;;;;;;;33.63;nan;97374.09;5043070;28;20085;-69
2023/08/25 08:20:14;;;;;;;13.73;10.27;;;;;;;33.84;nan;97375.13;5025218;28;20058;-68
2023/08/25 08:22:45;;;;;;;19.08;9.55;;;;;;;33.75;nan;97366.41;5041150;28;20152;-69
2023/08/25 08:25:14;;;;;;;16.05;9.52;;;;;;;33.53;nan;97372.81;5040758;28;20562;-69
2023/08/25 08:27:43;;;;;;;17.77;9.07;;;;;;;33.59;nan;97365.78;5024266;28;20049;-68
2023/08/25 08:30:16;;;;;;;15.00;8.90;;;;;;;33.32;nan;97380.78;5041254;28;20447;-68
2023/08/25 08:32:46;;;;;;;16.92;9.55;;;;;;;33.57;nan;97368.13;5042210;28;20071;-68
2023/08/25 08:35:17;;;;;;;14.00;7.95;;;;;;;33.68;nan;97366.31;5039439;28;20045;-69
2023/08/25 08:37:47;;;;;;;12.98;8.15;;;;;;;33.47;nan;97357.81;5040863;28;20040;-68
2023/08/25 08:40:16;;;;;;;14.23;8.40;;;;;;;33.50;nan;97362.59;5037765;28;20075;-69
2023/08/25 08:42:46;;;;;;;16.67;8.32;;;;;;;33.72;nan;97364.44;5039201;28;20134;-68
2023/08/25 08:45:17;;;;;;;15.35;9.95;;;;;;;33.75;nan;97362.88;5026910;28;20488;-68
2023/08/25 08:47:47;;;;;;;17.40;8.43;;;;;;;33.75;nan;97363.66;5039267;28;20163;-68
2023/08/25 08:50:17;;;;;;;13.00;8.10;;;;;;;33.90;nan;97366.56;5023255;28;20045;-69
2023/08/25 08:52:47;;;;;;;20.80;8.32;;;;;;;34.04;nan;97367.47;5038571;28;20117;-68
2023/08/25 08:55:20;;;;;;;16.38;7.07;;;;;;;34.03;nan;97374.16;5042120;28;20055;-67
2023/08/25 08:57:50;;;;;;;12.30;7.30;;;;;;;34.12;nan;97366.34;5041865;28;20053;-68
2023/08/25 09:00:21;;;;;;;11.93;7.32;;;;;;;34.16;nan;97363.66;5059898;28;20573;-68
2023/08/25 09:02:53;;;;;;;11.90;6.43;;;;;;;33.97;nan;97364.66;5043114;28;20152;-67
2023/08/25 09:05:29;;;;;;;13.43;6.50;;;;;;;33.94;nan;97362.69;5051029;28;20052;-67
2023/08/25 09:08:06;;;;;;;11.50;6.35;;;;;;;33.89;nan;97360.28;5036536;28;20160;-67
2023/08/25 09:10:35;;;;;;;13.40;6.72;;;;;;;33.98;nan;97352.50;5033828;28;20041;-66
2023/08/25 09:13:05;;;;;;;11.20;6.65;;;;;;;33.88;nan;97355.16;5035696;28;20136;-68
2023/08/25 09:15:34;;;;;;;13.63;7.30;;;;;;;33.52;nan;97353.94;5035867;28;20065;-67
2023/08/25 09:18:08;;;;;;;9.88;7.60;;;;;;;33.43;nan;97348.75;5019570;28;20053;-69
2023/08/25 09:20:41;;;;;;;15.18;7.63;;;;;;;33.64;nan;97345.44;5046394;28;20111;-68
2023/08/25 09:23:10;;;;;;;17.25;7.95;;;;;;;33.56;nan;97346.53;5050478;28;20080;-67
2023/08/25 09:25:43;;;;;;;15.05;7.20;;;;;;;33.62;nan;97339.56;5048952;28;20044;-66
2023/08/25 09:28:13;;;;;;;17.42;8.48;;;;;;;33.55;nan;97337.50;5037718;28;20471;-66
2023/08/25 09:30:46;;;;;;;17.40;7.97;;;;;;;33.62;nan;97347.78;5056505;28;20110;-66
2023/08/25 09:33:16;;;;;;;16.75;7.72;;;;;;;33.61;nan;97338.75;5053850;28;20772;-66
2023/08/25 09:35:45;;;;;;;12.13;7.38;;;;;;;33.60;nan;97337.16;5053373;28;20045;-66
2023/08/25 09:38:22;;;;;;;9.35;6.97;;;;;;;33.67;nan;97342.00;5053143;28;20427;-68
2023/08/25 09:40:51;;;;;;;17.10;7.78;;;;;;;33.44;nan;97333.88;5057264;28;20773;-69
2023/08/25 09:43:33;;;;;;;10.73;8.10;;;;;;;33.60;nan;97331.69;5031551;28;20060;-70
2023/08/25 09:46:05;;;;;;;14.95;8.40;;;;;;;33.62;nan;97332.09;5028749;28;20044;-69
2023/08/25 09:48:36;;;;;;;18.42;8.13;;;;;;;33.53;nan;97328.06;5027200;28;20041;-69
2023/08/25 09:51:06;;;;;;;20.42;8.02;;;;;;;33.49;nan;97325.31;5043455;28;20049;-68
2023/08/25 09:53:37;;;;;;;16.02;8.55;;;;;;;33.60;nan;97328.94;5027057;28;20075;-69
2023/08/25 09:56:07;;;;;;;13.30;8.68;;;;;;;33.63;nan;97325.44;5042722;28;20049;-68
2023/08/25 09:58:37;;;;;;;16.17;8.90;;;;;;;33.58;nan;97320.28;5042511;28;20060;-68
2023/08/25 10:01:07;;;;;;;15.70;9.02;;;;;;;33.64;nan;97318.78;5041745;28;20128;-69
2023/08/25 10:03:37;;;;;;;18.70;8.77;;;;;;;33.64;nan;97323.47;5048647;28;20056;-67
2023/08/25 10:06:08;;;;;;;18.02;8.80;;;;;;;33.62;nan;97320.34;5035196;28;20044;-68
2023/08/25 10:08:38;;;;;;;16.45;9.43;;;;;;;33.69;nan;97321.22;5040429;28;20055;-68
2023/08/25 10:11:09;;;;;;;12.93;9.30;;;;;;;33.70;nan;97309.06;5020831;28;20420;-70
2023/08/25 10:13:41;;;;;;;13.60;7.90;;;;;;;33.74;nan;97314.59;5012746;28;20053;-69
2023/08/25 10:16:12;;;;;;;19.10;9.52;;;;;;;33.58;nan;97312.06;5025829;28;20052;-69
2023/08/25 10:18:45;;;;;;;14.02;7.75;;;;;;;33.66;nan;97312.94;5044522;28;20118;-70
2023/08/25 10:21:19;;;;;;;17.57;8.47;;;;;;;33.68;nan;97308.63;5040856;28;20045;-70
2023/08/25 10:23:51;;;;;;;15.23;8.20;;;;;;;33.47;nan;97304.84;5042235;28;20123;-70
2023/08/25 10:26:22;;;;;;;11.77;7.70;;;;;;;33.38;nan;97307.91;5042705;28;20051;-70
2023/08/25 10:28:53;;;;;;;18.13;8.35;;;;;;;33.46;nan;97306.81;5044416;28;20048;-71
2023/08/25 10:31:25;;;;;;;16.45;8.85;;;;;;;33.45;nan;97313.50;5036244;28;20044;-69
2023/08/25 10:33:54;;;;;;;16.23;9.40;;;;;;;33.35;nan;97312.19;5046095;28;20124;-73
2023/08/25 10:36:24;;;;;;;9.35;5.70;;;;;;;33.22;nan;97321.06;4345964;28;10021497;-71
2023/08/25 10:39:00;;;;;;;15.70;7.78;;;;;;;33.11;nan;97323.63;5022677;28;20418;-73
2023/08/25 10:41:34;;;;;;;19.48;8.13;;;;;;;32.90;nan;97326.13;5019898;28;20053;-70
2023/08/25 10:44:09;;;;;;;14.63;8.05;;;;;;;32.88;nan;97336.69;5039425;28;20377;-71
2023/08/25 10:46:40;;;;;;;13.68;8.45;;;;;;;32.80;nan;97322.06;5037482;28;20383;-69
2023/08/25 10:49:17;;;;;;;14.93;8.63;;;;;;;32.77;nan;97308.31;5035293;28;20618;-67
2023/08/25 10:51:47;;;;;;;13.75;7.50;;;;;;;32.72;nan;97312.16;5021268;28;20570;-67
2023/08/25 10:54:17;;;;;;;16.05;8.45;;;;;;;32.73;nan;97313.75;5035295;28;20360;-69
2023/08/25 10:56:51;;;;;;;19.67;8.43;;;;;;;32.66;nan;97316.41;5036960;28;20053;-69
2023/08/25 10:59:24;;;;;;;17.15;8.35;;;;;;;32.60;nan;97317.06;5038592;28;20132;-67
2023/08/25 11:01:58;;;;;;;17.30;8.32;;;;;;;32.62;nan;97321.03;5040061;28;20048;-68
2023/08/25 11:04:29;;;;;;;20.45;8.32;;;;;;;32.66;nan;97327.38;5040904;28;20672;-67
2023/08/25 11:06:59;;;;;;;18.33;8.13;;;;;;;32.73;nan;97335.69;5022302;28;20040;-67
2023/08/25 11:09:33;;;;;;;13.65;8.60;;;;;;;32.65;nan;97327.72;4691157;28;9999601;-67
2023/08/25 11:12:07;;;;;;;17.48;8.43;;;;;;;32.59;nan;97308.03;4691463;28;10000458;-68
2023/08/25 11:14:42;;;;;;;17.50;8.98;;;;;;;32.63;nan;97306.16;5039283;28;20051;-68
2023/08/25 11:17:11;;;;;;;13.85;7.53;;;;;;;32.57;nan;97307.63;5022401;28;20041;-67
2023/08/25 11:19:42;;;;;;;16.17;7.95;;;;;;;32.36;nan;97307.28;5039113;28;20557;-67
2023/08/25 11:22:12;;;;;;;14.88;7.90;;;;;;;32.29;nan;97308.00;5036780;28;20045;-65
2023/08/25 11:24:44;;;;;;;18.95;8.27;;;;;;;32.34;nan;97312.38;5022154;28;20413;-65
2023/08/25 11:27:16;;;;;;;15.98;8.15;;;;;;;32.24;nan;97308.28;5039025;28;20051;-66
2023/08/25 11:29:45;;;;;;;12.25;7.72;;;;;;;31.92;nan;97296.00;5040343;28;20176;-66
2023/08/25 11:32:15;;;;;;;16.88;7.05;;;;;;;31.99;nan;97302.41;5040527;28;20156;-67
2023/08/25 11:34:48;;;;;;;12.85;7.93;;;;;;;31.99;nan;97310.63;5039328;28;20045;-66
2023/08/25 11:37:18;;;;;;;14.07;7.78;;;;;;;31.96;nan;97316.81;5022328;28;20045;-68
2023/08/25 11:39:47;;;;;;;19.40;8.18;;;;;;;32.07;nan;97312.31;5040520;28;20049;-67
2023/08/25 11:42:23;;;;;;;15.88;7.40;;;;;;;32.02;nan;97320.84;5037825;28;20673;-66
2023/08/25 11:44:52;;;;;;;12.57;7.10;;;;;;;31.94;nan;97321.88;5039925;28;20149;-67
2023/08/25 11:47:22;;;;;;;20.30;7.93;;;;;;;31.90;nan;97321.03;5039497;28;20064;-67
2023/08/25 11:50:01;;;;;;;17.63;8.15;;;;;;;32.00;nan;97320.41;5039404;28;20076;-69
2023/08/25 11:52:34;;;;;;;15.30;6.93;;;;;;;32.03;nan;97310.66;5035258;28;20456;-67
2023/08/25 11:55:04;;;;;;;12.18;6.97;;;;;;;31.90;nan;97309.28;5039118;28;20087;-67
2023/08/25 11:57:36;;;;;;;19.25;7.53;;;;;;;31.94;nan;97316.41;5039401;28;20123;-65